sensor_id;sensor_type;location;lat;lon;timestamp;P1;durP1;ratioP1;P2;durP2;ratioP2
8268;SDS011;4174;48.304;16.364;2023-11-21T00:05:12;5.33;;;1.10;;
8268;SDS011;4174;48.304;16.364;2023-11-21T00:11:15;5.73;;;1.00;;
8268;SDS011;4174;48.304;16.364;2023-11-21T00:17:18;4.47;;;1.00;;
8268;SDS011;4174;48.304;16.364;2023-11-21T00:23:22;6.67;;;1.20;;
8268;SDS011;4174;48.304;16.364;2023-11-21T00:29:26;3.85;;;0.95;;
8268;SDS011;4174;48.304;16.364;2023-11-21T00:35:30;3.67;;;0.80;;
8268;SDS011;4174;48.304;16.364;2023-11-21T00:41:34;5.12;;;1.12;;
8268;SDS011;4174;48.304;16.364;2023-11-21T00:47:38;4.93;;;1.10;;
8268;SDS011;4174;48.304;16.364;2023-11-21T00:53:41;7.80;;;1.20;;
8268;SDS011;4174;48.304;16.364;2023-11-21T00:59:46;7.93;;;1.20;;
8268;SDS011;4174;48.304;16.364;2023-11-21T01:05:50;5.47;;;1.10;;
8268;SDS011;4174;48.304;16.364;2023-11-21T01:11:54;6.53;;;1.30;;
8268;SDS011;4174;48.304;16.364;2023-11-21T01:17:57;6.17;;;1.27;;
8268;SDS011;4174;48.304;16.364;2023-11-21T01:24:02;5.63;;;1.40;;
8268;SDS011;4174;48.304;16.364;2023-11-21T01:30:10;6.70;;;1.40;;
8268;SDS011;4174;48.304;16.364;2023-11-21T01:36:14;6.03;;;1.30;;
8268;SDS011;4174;48.304;16.364;2023-11-21T01:42:17;7.47;;;1.20;;
8268;SDS011;4174;48.304;16.364;2023-11-21T01:48:21;6.73;;;1.30;;
8268;SDS011;4174;48.304;16.364;2023-11-21T01:54:24;6.30;;;1.20;;
8268;SDS011;4174;48.304;16.364;2023-11-21T02:00:26;6.77;;;1.37;;
8268;SDS011;4174;48.304;16.364;2023-11-21T02:06:30;6.07;;;1.17;;
8268;SDS011;4174;48.304;16.364;2023-11-21T02:12:33;5.03;;;1.27;;
8268;SDS011;4174;48.304;16.364;2023-11-21T02:18:36;6.40;;;1.50;;
8268;SDS011;4174;48.304;16.364;2023-11-21T02:24:40;6.05;;;1.50;;
8268;SDS011;4174;48.304;16.364;2023-11-21T02:30:42;7.68;;;1.80;;
8268;SDS011;4174;48.304;16.364;2023-11-21T02:36:46;6.93;;;1.60;;
8268;SDS011;4174;48.304;16.364;2023-11-21T02:42:48;7.43;;;1.90;;
8268;SDS011;4174;48.304;16.364;2023-11-21T02:48:51;7.80;;;2.20;;
8268;SDS011;4174;48.304;16.364;2023-11-21T02:54:55;7.43;;;1.70;;
8268;SDS011;4174;48.304;16.364;2023-11-21T03:00:59;6.33;;;1.80;;
8268;SDS011;4174;48.304;16.364;2023-11-21T03:07:03;7.27;;;1.70;;
8268;SDS011;4174;48.304;16.364;2023-11-21T03:13:06;7.30;;;1.60;;
8268;SDS011;4174;48.304;16.364;2023-11-21T03:19:11;6.73;;;1.80;;
8268;SDS011;4174;48.304;16.364;2023-11-21T03:25:14;7.72;;;1.70;;
8268;SDS011;4174;48.304;16.364;2023-11-21T03:31:17;6.32;;;1.50;;
8268;SDS011;4174;48.304;16.364;2023-11-21T03:37:20;7.25;;;1.87;;
8268;SDS011;4174;48.304;16.364;2023-11-21T03:43:23;11.07;;;1.70;;
8268;SDS011;4174;48.304;16.364;2023-11-21T03:49:27;8.25;;;1.60;;
8268;SDS011;4174;48.304;16.364;2023-11-21T03:55:30;6.00;;;1.60;;
8268;SDS011;4174;48.304;16.364;2023-11-21T04:01:34;6.50;;;1.70;;
8268;SDS011;4174;48.304;16.364;2023-11-21T04:07:38;6.27;;;1.70;;
8268;SDS011;4174;48.304;16.364;2023-11-21T04:13:41;8.57;;;2.10;;
8268;SDS011;4174;48.304;16.364;2023-11-21T04:19:45;9.13;;;1.90;;
8268;SDS011;4174;48.304;16.364;2023-11-21T04:25:47;7.47;;;1.97;;
8268;SDS011;4174;48.304;16.364;2023-11-21T04:31:51;8.50;;;2.20;;
8268;SDS011;4174;48.304;16.364;2023-11-21T04:37:54;7.03;;;2.10;;
8268;SDS011;4174;48.304;16.364;2023-11-21T04:43:58;7.73;;;1.90;;
8268;SDS011;4174;48.304;16.364;2023-11-21T04:50:02;7.93;;;2.20;;
8268;SDS011;4174;48.304;16.364;2023-11-21T04:56:07;8.57;;;2.45;;
8268;SDS011;4174;48.304;16.364;2023-11-21T05:02:11;7.75;;;2.20;;
8268;SDS011;4174;48.304;16.364;2023-11-21T05:08:15;7.53;;;2.40;;
8268;SDS011;4174;48.304;16.364;2023-11-21T05:14:18;6.40;;;2.20;;
8268;SDS011;4174;48.304;16.364;2023-11-21T05:20:21;7.10;;;2.20;;
8268;SDS011;4174;48.304;16.364;2023-11-21T05:26:25;10.03;;;2.80;;
8268;SDS011;4174;48.304;16.364;2023-11-21T05:32:29;8.18;;;2.22;;
8268;SDS011;4174;48.304;16.364;2023-11-21T05:38:32;8.90;;;2.40;;
8268;SDS011;4174;48.304;16.364;2023-11-21T05:44:35;8.97;;;2.70;;
8268;SDS011;4174;48.304;16.364;2023-11-21T05:50:39;8.23;;;2.80;;
8268;SDS011;4174;48.304;16.364;2023-11-21T05:56:43;11.37;;;3.50;;
8268;SDS011;4174;48.304;16.364;2023-11-21T06:02:46;9.87;;;3.07;;
8268;SDS011;4174;48.304;16.364;2023-11-21T06:08:51;9.80;;;2.53;;
8268;SDS011;4174;48.304;16.364;2023-11-21T06:14:55;8.77;;;2.70;;
8268;SDS011;4174;48.304;16.364;2023-11-21T06:20:58;9.97;;;2.60;;
8268;SDS011;4174;48.304;16.364;2023-11-21T06:27:03;9.55;;;3.12;;
8268;SDS011;4174;48.304;16.364;2023-11-21T06:33:09;8.75;;;2.20;;
8268;SDS011;4174;48.304;16.364;2023-11-21T06:39:12;7.87;;;1.98;;
8268;SDS011;4174;48.304;16.364;2023-11-21T06:45:16;7.83;;;1.90;;
8268;SDS011;4174;48.304;16.364;2023-11-21T06:51:19;6.20;;;1.87;;
8268;SDS011;4174;48.304;16.364;2023-11-21T06:57:24;9.20;;;2.10;;
8268;SDS011;4174;48.304;16.364;2023-11-21T07:03:27;9.00;;;2.62;;
8268;SDS011;4174;48.304;16.364;2023-11-21T07:09:31;7.47;;;2.67;;
8268;SDS011;4174;48.304;16.364;2023-11-21T07:15:34;11.85;;;3.22;;
8268;SDS011;4174;48.304;16.364;2023-11-21T07:21:38;9.80;;;2.90;;
8268;SDS011;4174;48.304;16.364;2023-11-21T07:27:41;9.55;;;2.85;;
8268;SDS011;4174;48.304;16.364;2023-11-21T07:33:45;9.27;;;2.67;;
8268;SDS011;4174;48.304;16.364;2023-11-21T07:39:50;9.02;;;2.40;;
8268;SDS011;4174;48.304;16.364;2023-11-21T07:45:53;7.67;;;2.40;;
8268;SDS011;4174;48.304;16.364;2023-11-21T07:51:56;10.00;;;2.80;;
8268;SDS011;4174;48.304;16.364;2023-11-21T07:58:00;9.67;;;3.03;;
8268;SDS011;4174;48.304;16.364;2023-11-21T08:04:04;10.88;;;2.80;;
8268;SDS011;4174;48.304;16.364;2023-11-21T08:10:09;8.97;;;2.50;;
8268;SDS011;4174;48.304;16.364;2023-11-21T08:16:12;9.07;;;2.27;;
8268;SDS011;4174;48.304;16.364;2023-11-21T08:22:15;8.83;;;2.60;;
8268;SDS011;4174;48.304;16.364;2023-11-21T08:28:19;9.53;;;2.30;;
8268;SDS011;4174;48.304;16.364;2023-11-21T08:34:21;7.75;;;2.25;;
8268;SDS011;4174;48.304;16.364;2023-11-21T08:40:25;8.50;;;2.30;;
8268;SDS011;4174;48.304;16.364;2023-11-21T08:46:28;8.77;;;2.50;;
8268;SDS011;4174;48.304;16.364;2023-11-21T08:52:32;8.20;;;2.17;;
8268;SDS011;4174;48.304;16.364;2023-11-21T08:58:35;9.07;;;2.37;;
8268;SDS011;4174;48.304;16.364;2023-11-21T09:04:38;9.50;;;2.50;;
8268;SDS011;4174;48.304;16.364;2023-11-21T09:10:42;9.52;;;3.00;;
8268;SDS011;4174;48.304;16.364;2023-11-21T09:16:45;8.02;;;2.80;;
8268;SDS011;4174;48.304;16.364;2023-11-21T09:22:49;8.80;;;2.60;;
8268;SDS011;4174;48.304;16.364;2023-11-21T09:28:52;7.90;;;2.50;;
8268;SDS011;4174;48.304;16.364;2023-11-21T09:34:56;10.02;;;2.50;;
8268;SDS011;4174;48.304;16.364;2023-11-21T09:41:01;9.90;;;2.35;;
8268;SDS011;4174;48.304;16.364;2023-11-21T09:47:04;10.35;;;1.90;;
8268;SDS011;4174;48.304;16.364;2023-11-21T09:53:17;6.85;;;1.60;;
8268;SDS011;4174;48.304;16.364;2023-11-21T09:59:20;9.20;;;1.90;;
8268;SDS011;4174;48.304;16.364;2023-11-21T10:05:23;5.23;;;1.20;;
8268;SDS011;4174;48.304;16.364;2023-11-21T10:11:26;7.10;;;1.40;;
8268;SDS011;4174;48.304;16.364;2023-11-21T10:17:29;6.13;;;1.30;;
8268;SDS011;4174;48.304;16.364;2023-11-21T10:23:33;5.67;;;1.20;;
8268;SDS011;4174;48.304;16.364;2023-11-21T10:29:37;4.68;;;1.10;;
8268;SDS011;4174;48.304;16.364;2023-11-21T10:35:44;6.70;;;1.60;;
8268;SDS011;4174;48.304;16.364;2023-11-21T10:41:47;9.98;;;3.10;;
8268;SDS011;4174;48.304;16.364;2023-11-21T10:47:50;7.35;;;2.00;;
8268;SDS011;4174;48.304;16.364;2023-11-21T10:53:54;9.37;;;2.70;;
8268;SDS011;4174;48.304;16.364;2023-11-21T10:59:58;10.43;;;2.73;;
8268;SDS011;4174;48.304;16.364;2023-11-21T11:06:02;5.00;;;1.20;;
8268;SDS011;4174;48.304;16.364;2023-11-21T11:12:04;5.30;;;1.00;;
8268;SDS011;4174;48.304;16.364;2023-11-21T11:18:08;5.82;;;1.42;;
8268;SDS011;4174;48.304;16.364;2023-11-21T11:31:04;6.80;;;1.75;;
8268;SDS011;4174;48.304;16.364;2023-11-21T11:37:07;9.10;;;2.17;;
8268;SDS011;4174;48.304;16.364;2023-11-21T11:43:10;7.00;;;1.77;;
8268;SDS011;4174;48.304;16.364;2023-11-21T11:55:25;6.72;;;1.48;;
8268;SDS011;4174;48.304;16.364;2023-11-21T12:01:29;6.57;;;1.60;;
8268;SDS011;4174;48.304;16.364;2023-11-21T12:13:46;7.45;;;1.90;;
8268;SDS011;4174;48.304;16.364;2023-11-21T12:19:49;6.23;;;1.40;;
8268;SDS011;4174;48.304;16.364;2023-11-21T12:25:52;6.77;;;1.50;;
8268;SDS011;4174;48.304;16.364;2023-11-21T12:31:57;5.50;;;1.30;;
8268;SDS011;4174;48.304;16.364;2023-11-21T18:24:51;7.22;;;2.60;;
8268;SDS011;4174;48.304;16.364;2023-11-21T18:30:55;6.20;;;2.40;;
8268;SDS011;4174;48.304;16.364;2023-11-21T18:36:59;9.43;;;2.80;;
8268;SDS011;4174;48.304;16.364;2023-11-21T18:43:03;7.85;;;2.90;;
8268;SDS011;4174;48.304;16.364;2023-11-21T18:49:06;7.47;;;2.67;;
8268;SDS011;4174;48.304;16.364;2023-11-21T18:55:10;6.87;;;2.60;;
8268;SDS011;4174;48.304;16.364;2023-11-21T19:01:23;9.13;;;3.33;;
8268;SDS011;4174;48.304;16.364;2023-11-21T19:07:16;8.32;;;2.80;;
8268;SDS011;4174;48.304;16.364;2023-11-21T19:13:19;6.33;;;2.53;;
8268;SDS011;4174;48.304;16.364;2023-11-21T19:19:22;6.50;;;2.43;;
8268;SDS011;4174;48.304;16.364;2023-11-21T19:25:25;7.63;;;2.60;;
8268;SDS011;4174;48.304;16.364;2023-11-21T19:31:29;7.23;;;2.60;;
8268;SDS011;4174;48.304;16.364;2023-11-21T19:37:32;12.55;;;4.78;;
8268;SDS011;4174;48.304;16.364;2023-11-21T19:43:36;10.87;;;3.90;;
8268;SDS011;4174;48.304;16.364;2023-11-21T19:49:39;12.30;;;4.50;;
8268;SDS011;4174;48.304;16.364;2023-11-21T19:55:43;11.85;;;4.03;;
8268;SDS011;4174;48.304;16.364;2023-11-21T20:01:47;13.43;;;4.90;;
8268;SDS011;4174;48.304;16.364;2023-11-21T20:07:50;11.47;;;4.60;;
8268;SDS011;4174;48.304;16.364;2023-11-21T20:13:54;21.15;;;6.78;;
8268;SDS011;4174;48.304;16.364;2023-11-21T20:19:57;30.83;;;9.97;;
8268;SDS011;4174;48.304;16.364;2023-11-21T20:26:01;24.43;;;8.93;;
8268;SDS011;4174;48.304;16.364;2023-11-21T20:32:04;22.53;;;7.93;;
8268;SDS011;4174;48.304;16.364;2023-11-21T20:38:08;22.07;;;7.50;;
8268;SDS011;4174;48.304;16.364;2023-11-21T20:44:12;13.23;;;5.50;;
8268;SDS011;4174;48.304;16.364;2023-11-21T20:50:15;11.53;;;4.93;;
8268;SDS011;4174;48.304;16.364;2023-11-21T20:56:19;10.53;;;4.90;;
8268;SDS011;4174;48.304;16.364;2023-11-21T21:02:22;10.97;;;5.30;;
8268;SDS011;4174;48.304;16.364;2023-11-21T21:08:26;13.85;;;6.10;;
8268;SDS011;4174;48.304;16.364;2023-11-21T21:14:30;11.10;;;4.75;;
8268;SDS011;4174;48.304;16.364;2023-11-21T21:20:34;11.53;;;4.77;;
8268;SDS011;4174;48.304;16.364;2023-11-21T21:26:38;13.62;;;5.40;;
8268;SDS011;4174;48.304;16.364;2023-11-21T21:32:42;12.63;;;5.70;;
8268;SDS011;4174;48.304;16.364;2023-11-21T21:38:45;11.40;;;4.87;;
8268;SDS011;4174;48.304;16.364;2023-11-21T21:44:49;10.63;;;4.43;;
8268;SDS011;4174;48.304;16.364;2023-11-21T21:50:53;10.90;;;4.82;;
8268;SDS011;4174;48.304;16.364;2023-11-21T21:56:56;9.93;;;4.50;;
8268;SDS011;4174;48.304;16.364;2023-11-21T22:03:00;12.70;;;4.60;;
8268;SDS011;4174;48.304;16.364;2023-11-21T22:09:03;11.07;;;4.45;;
8268;SDS011;4174;48.304;16.364;2023-11-21T22:15:07;10.20;;;4.37;;
8268;SDS011;4174;48.304;16.364;2023-11-21T22:21:13;9.60;;;4.40;;
8268;SDS011;4174;48.304;16.364;2023-11-21T22:27:15;9.70;;;4.30;;
8268;SDS011;4174;48.304;16.364;2023-11-21T22:33:18;10.77;;;4.43;;
8268;SDS011;4174;48.304;16.364;2023-11-21T22:39:21;10.73;;;4.30;;
8268;SDS011;4174;48.304;16.364;2023-11-21T22:45:25;10.45;;;4.00;;
8268;SDS011;4174;48.304;16.364;2023-11-21T22:51:31;9.37;;;4.13;;
8268;SDS011;4174;48.304;16.364;2023-11-21T22:57:35;9.17;;;3.90;;
8268;SDS011;4174;48.304;16.364;2023-11-21T23:03:39;10.00;;;4.30;;
8268;SDS011;4174;48.304;16.364;2023-11-21T23:09:43;10.43;;;4.77;;
8268;SDS011;4174;48.304;16.364;2023-11-21T23:15:47;11.15;;;5.03;;
8268;SDS011;4174;48.304;16.364;2023-11-21T23:21:51;11.50;;;4.60;;
8268;SDS011;4174;48.304;16.364;2023-11-21T23:27:54;10.40;;;4.60;;
8268;SDS011;4174;48.304;16.364;2023-11-21T23:33:57;11.83;;;4.53;;
8268;SDS011;4174;48.304;16.364;2023-11-21T23:40:01;10.93;;;4.40;;
8268;SDS011;4174;48.304;16.364;2023-11-21T23:46:05;10.23;;;4.50;;
8268;SDS011;4174;48.304;16.364;2023-11-21T23:52:09;9.75;;;4.40;;
8268;SDS011;4174;48.304;16.364;2023-11-21T23:58:12;10.63;;;4.20;;
